Time;durP1;ratioP1;P1;durP2;ratioP2;P2;SDS_P1;SDS_P2;PMS_P1;PMS_P2;Temp;Humidity;BMP_temperature;BMP_pressure;BME280_temperature;BME280_humidity;BME280_pressure;Samples;Min_cycle;Max_cycle;Signal;HPM_P1;HPM_P2
2023/12/31 00:00:39;;;;;;;45.53;28.02;;;11.30;96.00;;;;;;5044919;28;20025;-82
2023/12/31 00:03:05;;;;;;;41.10;26.30;;;11.30;96.00;;;;;;5040042;28;20462;-82
2023/12/31 00:05:30;;;;;;;40.90;26.90;;;11.30;96.10;;;;;;5031684;28;20045;-82
2023/12/31 00:07:56;;;;;;;39.20;26.25;;;11.30;96.00;;;;;;5035001;28;20029;-82
2023/12/31 00:10:22;;;;;;;40.45;27.00;;;11.30;96.00;;;;;;5033763;28;20033;-82
2023/12/31 00:12:48;;;;;;;50.45;27.45;;;11.30;96.00;;;;;;5040566;28;20037;-83
2023/12/31 00:15:14;;;;;;;42.20;28.25;;;11.30;96.00;;;;;;5046583;28;20033;-81
2023/12/31 00:17:39;;;;;;;41.47;28.45;;;11.30;96.00;;;;;;5033877;28;20041;-81
2023/12/31 00:20:06;;;;;;;45.45;26.98;;;11.30;96.00;;;;;;5034128;28;20414;-81
2023/12/31 00:22:31;;;;;;;41.67;27.42;;;11.30;96.00;;;;;;5040876;28;20162;-82
2023/12/31 00:24:57;;;;;;;42.03;26.60;;;11.30;96.00;;;;;;5035428;28;20116;-81
2023/12/31 00:27:23;;;;;;;40.25;25.55;;;11.30;96.20;;;;;;5033668;28;20033;-82
2023/12/31 00:29:49;;;;;;;45.05;29.02;;;11.30;96.30;;;;;;5036531;28;20033;-82
2023/12/31 00:32:16;;;;;;;41.92;27.02;;;11.30;96.30;;;;;;5039104;28;20047;-82
2023/12/31 00:34:41;;;;;;;41.45;27.55;;;11.30;96.20;;;;;;5036477;28;20112;-82
2023/12/31 00:37:07;;;;;;;40.28;26.80;;;11.20;96.20;;;;;;5042069;28;20418;-83
2023/12/31 00:39:33;;;;;;;42.55;27.02;;;11.20;96.30;;;;;;5033361;28;20064;-83
2023/12/31 00:41:58;;;;;;;41.55;27.80;;;11.20;96.40;;;;;;5033898;28;20085;-83
2023/12/31 00:44:24;;;;;;;42.05;27.85;;;11.20;96.50;;;;;;5033813;28;20446;-84
2023/12/31 00:46:50;;;;;;;43.13;28.45;;;11.20;96.60;;;;;;5038631;28;20033;-83
2023/12/31 00:49:17;;;;;;;42.65;26.98;;;11.20;96.50;;;;;;5038024;28;20071;-83
2023/12/31 00:51:43;;;;;;;39.33;27.08;;;11.20;96.40;;;;;;5035867;28;20029;-84
2023/12/31 00:54:09;;;;;;;42.65;27.23;;;11.20;96.40;;;;;;5034766;28;20120;-83
2023/12/31 00:56:34;;;;;;;41.47;26.33;;;11.20;96.40;;;;;;5034407;28;20100;-83
2023/12/31 00:59:02;;;;;;;35.75;23.30;;;11.20;96.40;;;;;;5033457;28;20035;-83
2023/12/31 01:01:28;;;;;;;34.97;23.92;;;11.20;96.30;;;;;;5033669;28;20029;-83
2023/12/31 01:03:53;;;;;;;35.70;26.25;;;11.20;96.10;;;;;;5049783;28;20029;-83
2023/12/31 01:06:19;;;;;;;42.17;27.15;;;11.20;95.80;;;;;;5020281;28;20041;-83
2023/12/31 01:08:45;;;;;;;38.22;26.05;;;11.20;95.70;;;;;;5032940;28;20496;-83
2023/12/31 01:11:11;;;;;;;37.15;24.95;;;11.10;95.60;;;;;;5039496;28;20033;-81
2023/12/31 01:13:37;;;;;;;37.92;24.10;;;11.10;95.60;;;;;;5051513;28;20103;-82
2023/12/31 01:16:04;;;;;;;36.10;25.42;;;11.10;95.60;;;;;;5033878;28;20037;-82
2023/12/31 01:18:30;;;;;;;37.55;24.75;;;11.10;95.60;;;;;;5053203;28;20025;-82
2023/12/31 01:20:56;;;;;;;37.08;25.05;;;11.00;95.60;;;;;;5052264;28;20025;-82
2023/12/31 01:23:21;;;;;;;38.65;25.38;;;11.00;95.60;;;;;;5052119;28;20538;-82
2023/12/31 01:25:47;;;;;;;38.17;25.98;;;11.00;95.50;;;;;;5049099;28;20120;-81
2023/12/31 01:28:13;;;;;;;40.30;25.55;;;11.00;95.60;;;;;;5051841;28;20033;-81
2023/12/31 01:30:39;;;;;;;37.78;25.38;;;11.00;95.60;;;;;;5048630;28;20349;-81
2023/12/31 01:33:05;;;;;;;37.83;24.63;;;11.00;95.60;;;;;;5033387;28;20034;-82
2023/12/31 01:35:30;;;;;;;33.45;22.95;;;10.80;95.60;;;;;;5044088;28;20037;-82
2023/12/31 01:37:56;;;;;;;39.70;26.38;;;10.80;95.80;;;;;;5039327;28;20098;-83
2023/12/31 01:40:22;;;;;;;34.78;22.45;;;10.70;96.00;;;;;;5025808;28;20112;-82
2023/12/31 01:42:47;;;;;;;40.25;26.42;;;10.70;95.90;;;;;;5045768;28;20595;-82
2023/12/31 01:45:14;;;;;;;41.60;27.65;;;10.70;96.00;;;;;;5049643;28;20057;-81
2023/12/31 01:47:40;;;;;;;42.78;28.42;;;10.70;96.10;;;;;;5044043;28;20033;-82
2023/12/31 01:50:07;;;;;;;39.78;26.75;;;10.70;96.10;;;;;;5032348;28;20031;-81
2023/12/31 01:52:34;;;;;;;42.10;27.17;;;10.60;96.10;;;;;;5034889;28;20377;-81
2023/12/31 01:55:05;;;;;;;39.53;27.00;;;10.60;96.20;;;;;;5031536;28;20465;-81
2023/12/31 01:57:33;;;;;;;44.72;28.42;;;10.60;96.20;;;;;;5031753;28;20026;-81
2023/12/31 02:00:00;;;;;;;42.45;28.00;;;10.60;96.30;;;;;;5032213;28;20049;-82
2023/12/31 02:02:26;;;;;;;42.95;28.85;;;10.60;96.40;;;;;;5044204;28;20357;-81
2023/12/31 02:04:52;;;;;;;43.83;30.33;;;10.60;96.40;;;;;;5032409;28;20343;-81
2023/12/31 02:07:20;;;;;;;44.65;29.77;;;10.70;96.40;;;;;;5036999;28;20041;-81
2023/12/31 02:09:46;;;;;;;38.65;26.17;;;10.70;96.50;;;;;;5034021;28;20036;-81
2023/12/31 02:12:12;;;;;;;36.88;25.88;;;10.60;96.50;;;;;;5039684;28;20034;-81
2023/12/31 02:14:38;;;;;;;40.10;26.27;;;10.60;96.50;;;;;;5039968;28;20022;-81
2023/12/31 02:17:03;;;;;;;47.35;30.30;;;10.60;96.60;;;;;;5036101;28;20041;-81
2023/12/31 02:19:29;;;;;;;45.42;30.20;;;10.60;96.60;;;;;;5035836;28;20223;-82
2023/12/31 02:21:55;;;;;;;49.78;32.22;;;10.50;96.60;;;;;;5045540;28;20468;-81
2023/12/31 02:24:26;;;;;;;57.00;34.15;;;10.60;96.70;;;;;;5039124;28;20025;-81
2023/12/31 02:26:52;;;;;;;54.38;35.30;;;10.60;96.80;;;;;;5043271;28;20038;-81
2023/12/31 02:29:19;;;;;;;55.60;35.20;;;10.50;96.90;;;;;;5042156;28;20028;-81
2023/12/31 02:31:44;;;;;;;53.95;35.10;;;10.50;96.90;;;;;;5040333;28;20378;-82
2023/12/31 02:34:11;;;;;;;77.88;48.60;;;10.50;96.90;;;;;;5042367;28;20033;-81
2023/12/31 02:36:36;;;;;;;71.57;46.22;;;10.50;96.90;;;;;;5042222;28;20489;-82
2023/12/31 02:39:02;;;;;;;58.13;33.88;;;10.40;96.80;;;;;;5041964;28;20079;-81
2023/12/31 02:41:28;;;;;;;53.53;33.83;;;10.40;96.90;;;;;;5035716;28;20037;-81
2023/12/31 02:43:54;;;;;;;63.08;40.50;;;10.30;97.00;;;;;;5036746;28;20057;-81
2023/12/31 02:46:19;;;;;;;53.53;34.33;;;10.30;97.00;;;;;;5034591;28;21559;-81
2023/12/31 02:48:45;;;;;;;52.25;33.15;;;10.20;97.10;;;;;;5036169;28;20040;-81
2023/12/31 02:51:11;;;;;;;54.58;34.20;;;10.20;97.10;;;;;;5038587;28;20033;-81
2023/12/31 02:53:36;;;;;;;53.72;34.92;;;10.20;97.20;;;;;;5038503;28;20114;-80
2023/12/31 02:56:02;;;;;;;50.45;33.35;;;10.30;97.20;;;;;;5034626;28;20466;-81
2023/12/31 02:58:28;;;;;;;47.10;32.17;;;10.30;97.10;;;;;;5042696;28;20029;-82
2023/12/31 03:00:54;;;;;;;47.67;32.88;;;10.30;97.10;;;;;;5033570;28;20517;-82
2023/12/31 03:03:19;;;;;;;46.88;31.55;;;10.30;97.20;;;;;;5038353;28;20034;-82
2023/12/31 03:05:45;;;;;;;51.17;33.50;;;10.30;97.20;;;;;;5035244;28;20029;-82
2023/12/31 03:08:11;;;;;;;53.03;32.85;;;10.30;97.30;;;;;;5035309;28;20466;-83
2023/12/31 03:10:37;;;;;;;42.20;27.83;;;10.30;97.30;;;;;;5041478;28;20036;-82
2023/12/31 03:13:03;;;;;;;54.03;35.25;;;10.30;97.30;;;;;;5037549;28;20028;-82
2023/12/31 03:15:28;;;;;;;49.38;30.90;;;10.30;97.40;;;;;;5045331;28;20041;-82
2023/12/31 03:17:54;;;;;;;51.80;33.95;;;10.30;97.40;;;;;;5035815;28;20057;-92
2023/12/31 03:20:20;;;;;;;52.15;34.28;;;10.30;97.40;;;;;;5036338;28;20030;-93
2023/12/31 03:22:48;;;;;;;45.47;29.58;;;10.40;97.50;;;;;;5037454;28;20450;-92
2023/12/31 03:25:14;;;;;;;46.80;29.63;;;10.40;97.50;;;;;;5035798;28;20067;-91
2023/12/31 03:27:40;;;;;;;50.72;31.63;;;10.30;97.40;;;;;;5036374;28;20104;-91
2023/12/31 03:30:07;;;;;;;50.97;33.55;;;10.30;97.40;;;;;;5034817;28;20041;-90
2023/12/31 03:32:33;;;;;;;53.28;32.65;;;10.30;97.50;;;;;;5035850;28;20377;-91
2023/12/31 03:34:58;;;;;;;46.75;31.45;;;10.30;97.60;;;;;;5034700;28;20021;-89
2023/12/31 03:37:24;;;;;;;48.78;30.95;;;10.30;97.60;;;;;;5035512;28;20049;-91
2023/12/31 03:39:51;;;;;;;48.95;33.03;;;10.30;97.60;;;;;;5035475;28;20025;-90
2023/12/31 03:42:18;;;;;;;53.90;30.70;;;10.30;97.70;;;;;;5035458;28;20057;-92
2023/12/31 03:44:43;;;;;;;48.50;31.35;;;10.30;97.60;;;;;;5036223;28;20018;-91
2023/12/31 03:47:09;;;;;;;46.75;30.58;;;10.30;97.70;;;;;;5036432;28;20025;-92
2023/12/31 03:49:35;;;;;;;48.22;32.25;;;10.40;97.70;;;;;;5039506;28;20032;-92
2023/12/31 03:52:01;;;;;;;42.95;27.77;;;10.40;97.70;;;;;;5039223;28;20469;-91
2023/12/31 03:54:26;;;;;;;50.05;32.65;;;10.30;97.60;;;;;;5036300;28;20033;-92
2023/12/31 03:56:52;;;;;;;49.38;30.65;;;10.30;97.70;;;;;;5035934;28;20100;-93
2023/12/31 03:59:18;;;;;;;47.45;30.85;;;10.40;97.70;;;;;;5036395;28;20025;-90
2023/12/31 04:01:45;;;;;;;54.88;34.85;;;10.40;97.60;;;;;;5048405;28;20028;-90
2023/12/31 04:04:14;;;;;;;50.63;31.17;;;10.40;97.50;;;;;;5038698;28;20048;-91
2023/12/31 04:06:41;;;;;;;45.97;29.33;;;10.50;97.60;;;;;;5055490;28;20064;-89
2023/12/31 04:09:09;;;;;;;55.53;32.28;;;10.50;97.60;;;;;;5046165;28;20053;-88
2023/12/31 04:11:34;;;;;;;48.53;31.25;;;10.40;97.60;;;;;;5035100;28;20477;-89
2023/12/31 04:14:00;;;;;;;36.60;25.73;;;10.50;97.60;;;;;;5047306;28;20037;-90
2023/12/31 04:16:26;;;;;;;43.20;29.17;;;10.50;97.50;;;;;;5055241;28;20036;-90
2023/12/31 04:18:51;;;;;;;48.95;31.52;;;10.40;97.60;;;;;;5034678;28;20531;-91
2023/12/31 04:21:17;;;;;;;47.03;30.98;;;10.40;97.60;;;;;;5034714;28;20112;-90
2023/12/31 04:23:42;;;;;;;48.80;31.13;;;10.40;97.60;;;;;;5034941;28;20052;-89
2023/12/31 04:26:08;;;;;;;42.25;29.42;;;10.40;97.60;;;;;;5033977;28;20021;-89
2023/12/31 04:28:34;;;;;;;42.58;28.08;;;10.50;97.60;;;;;;5034006;28;20021;-89
2023/12/31 04:31:02;;;;;;;46.90;29.65;;;10.40;97.30;;;;;;5035198;28;20037;-89
2023/12/31 04:33:28;;;;;;;47.65;30.88;;;10.40;97.40;;;;;;5034276;28;20075;-89
2023/12/31 04:35:53;;;;;;;42.22;27.55;;;10.40;97.50;;;;;;5040934;28;20447;-89
2023/12/31 04:38:19;;;;;;;47.38;29.67;;;10.40;97.40;;;;;;5025972;28;20030;-89
2023/12/31 04:40:45;;;;;;;48.22;30.80;;;10.40;97.30;;;;;;5031155;28;20160;-89
2023/12/31 04:43:10;;;;;;;50.08;31.25;;;10.40;97.30;;;;;;5034242;28;20032;-89
2023/12/31 04:45:36;;;;;;;42.03;29.02;;;10.30;97.30;;;;;;5034452;28;20409;-89
2023/12/31 04:48:02;;;;;;;45.20;29.17;;;10.30;97.40;;;;;;5034637;28;20032;-89
2023/12/31 04:50:28;;;;;;;44.15;29.35;;;10.40;97.50;;;;;;5034121;28;20036;-88
2023/12/31 04:52:54;;;;;;;46.78;30.60;;;10.40;97.50;;;;;;5034379;28;20107;-89
2023/12/31 04:55:20;;;;;;;45.45;28.95;;;10.50;97.50;;;;;;5034297;28;20051;-88
2023/12/31 04:57:46;;;;;;;46.58;29.63;;;10.50;97.50;;;;;;5034250;28;20393;-91
2023/12/31 05:00:12;;;;;;;46.85;29.25;;;10.50;97.50;;;;;;5034746;28;20025;-92
2023/12/31 05:02:38;;;;;;;44.92;28.92;;;10.50;97.60;;;;;;5032869;28;20022;-91
2023/12/31 05:05:05;;;;;;;43.15;28.45;;;10.50;97.60;;;;;;5034218;28;20041;-91
2023/12/31 05:07:30;;;;;;;44.33;29.15;;;10.60;97.70;;;;;;5034033;28;20476;-92
2023/12/31 05:09:56;;;;;;;42.80;27.73;;;10.60;97.70;;;;;;5034025;28;20069;-87
2023/12/31 05:12:22;;;;;;;41.13;25.95;;;10.60;97.70;;;;;;5032826;28;20485;-92
2023/12/31 05:14:47;;;;;;;43.17;27.05;;;10.60;97.70;;;;;;5034559;28;20440;-92
2023/12/31 05:17:13;;;;;;;36.67;24.20;;;10.70;97.70;;;;;;5034297;28;20400;-90
2023/12/31 05:19:39;;;;;;;36.47;24.25;;;10.70;97.70;;;;;;5034037;28;20052;-89
2023/12/31 05:22:05;;;;;;;36.20;23.75;;;10.70;97.50;;;;;;5033611;28;20034;-91
2023/12/31 05:24:30;;;;;;;37.58;24.40;;;10.70;97.50;;;;;;5033496;28;20381;-91
2023/12/31 05:26:56;;;;;;;33.03;23.40;;;10.70;97.50;;;;;;5033788;28;20022;-91
2023/12/31 05:29:22;;;;;;;35.95;24.45;;;10.70;97.50;;;;;;5032513;28;20175;-91
2023/12/31 05:31:47;;;;;;;35.55;23.50;;;10.70;97.50;;;;;;5033743;28;20021;-92
2023/12/31 05:34:13;;;;;;;34.42;21.80;;;10.70;97.50;;;;;;5033699;28;20466;-91
2023/12/31 05:36:39;;;;;;;34.95;22.75;;;10.70;97.50;;;;;;5033620;28;20029;-91
2023/12/31 05:39:05;;;;;;;29.98;21.02;;;10.80;97.10;;;;;;5036857;28;20091;-92
2023/12/31 05:41:31;;;;;;;29.73;20.02;;;10.70;97.00;;;;;;5034325;28;20029;-93
2023/12/31 05:43:56;;;;;;;30.33;18.90;;;10.70;97.00;;;;;;5032924;28;20029;-93
2023/12/31 05:46:22;;;;;;;34.45;23.70;;;10.60;96.90;;;;;;5034404;28;20036;-93
2023/12/31 05:48:48;;;;;;;29.73;21.58;;;10.60;97.10;;;;;;5034116;28;20034;-93
2023/12/31 05:51:14;;;;;;;37.78;23.58;;;10.60;97.20;;;;;;5034828;28;20469;-93
2023/12/31 05:53:39;;;;;;;35.17;22.08;;;10.60;97.20;;;;;;5034888;28;20029;-93
2023/12/31 05:56:05;;;;;;;42.78;28.10;;;10.50;97.20;;;;;;5034243;28;20030;-93
2023/12/31 05:58:31;;;;;;;37.53;25.85;;;10.50;97.30;;;;;;5033043;28;20027;-93
2023/12/31 06:00:58;;;;;;;44.47;28.45;;;10.50;97.50;;;;;;5033797;28;20104;-93
2023/12/31 06:03:24;;;;;;;42.28;27.30;;;10.40;97.50;;;;;;5034150;28;20377;-93
2023/12/31 06:05:49;;;;;;;40.95;27.58;;;10.40;97.60;;;;;;5033854;28;20032;-93
2023/12/31 06:08:15;;;;;;;36.53;26.35;;;10.50;97.70;;;;;;5033997;28;20474;-93
2023/12/31 06:10:41;;;;;;;43.42;27.85;;;10.50;97.70;;;;;;5032590;28;20487;-94
2023/12/31 06:13:07;;;;;;;44.53;29.38;;;10.40;97.70;;;;;;5033560;28;20065;-92
2023/12/31 06:15:32;;;;;;;41.90;28.27;;;10.40;97.70;;;;;;5033721;28;20025;-94
2023/12/31 06:17:59;;;;;;;44.22;29.73;;;10.40;97.70;;;;;;5034127;28;20009;-93
2023/12/31 06:20:24;;;;;;;40.03;27.23;;;10.40;97.70;;;;;;5033833;28;20044;-94
2023/12/31 06:22:50;;;;;;;40.15;27.48;;;10.40;97.80;;;;;;5031866;28;20029;-93
2023/12/31 06:25:15;;;;;;;42.97;28.50;;;10.40;98.00;;;;;;5032009;28;20030;-94
2023/12/31 06:27:41;;;;;;;45.65;27.95;;;10.40;98.00;;;;;;5033629;28;20017;-93
2023/12/31 06:30:07;;;;;;;41.35;27.10;;;10.40;97.90;;;;;;5033318;28;20505;-94
2023/12/31 06:32:33;;;;;;;42.05;26.88;;;10.40;97.90;;;;;;5033718;28;20021;-93
2023/12/31 06:34:58;;;;;;;42.80;27.08;;;10.40;98.10;;;;;;5032573;28;20155;-93
2023/12/31 06:37:25;;;;;;;42.30;28.02;;;10.50;98.20;;;;;;5033400;28;20458;-93
2023/12/31 06:39:51;;;;;;;42.97;27.27;;;10.50;98.10;;;;;;5031943;28;20033;-92
2023/12/31 06:42:17;;;;;;;44.67;28.67;;;10.50;98.10;;;;;;5032815;28;20026;-94
2023/12/31 06:44:42;;;;;;;45.72;28.10;;;10.50;98.20;;;;;;5033637;28;20393;-94
2023/12/31 06:47:08;;;;;;;43.67;28.55;;;10.50;98.20;;;;;;5034032;28;20025;-93
2023/12/31 06:49:34;;;;;;;46.38;29.73;;;10.50;98.30;;;;;;5033743;28;20034;-94
2023/12/31 06:52:00;;;;;;;43.03;28.60;;;10.50;98.40;;;;;;5033110;28;20374;-94
2023/12/31 06:54:27;;;;;;;39.08;25.60;;;10.50;98.30;;;;;;5033619;28;20025;-93
2023/12/31 06:56:53;;;;;;;39.97;27.85;;;10.50;98.30;;;;;;5035361;28;20026;-93
2023/12/31 06:59:19;;;;;;;40.03;27.15;;;10.50;98.30;;;;;;5036075;28;20033;-91
2023/12/31 07:01:44;;;;;;;33.67;22.70;;;10.50;98.30;;;;;;5036062;28;20496;-90
2023/12/31 07:04:10;;;;;;;40.22;27.20;;;10.50;98.40;;;;;;5036787;28;20032;-95
2023/12/31 07:06:36;;;;;;;43.60;27.42;;;10.50;98.50;;;;;;5036109;28;20037;-94
2023/12/31 07:09:01;;;;;;;42.47;27.73;;;10.50;98.50;;;;;;5035981;28;20033;-91
2023/12/31 07:11:27;;;;;;;38.92;23.63;;;10.40;98.40;;;;;;5036848;28;20029;-91
2023/12/31 07:13:53;;;;;;;59.25;39.35;;;10.40;98.30;;;;;;5036642;28;20028;-92
2023/12/31 07:16:18;;;;;;;51.08;32.17;;;10.40;98.30;;;;;;5036743;28;20021;-90
2023/12/31 07:18:44;;;;;;;49.95;33.45;;;10.30;98.10;;;;;;5036277;28;20034;-92
2023/12/31 07:21:10;;;;;;;41.72;28.45;;;10.20;98.20;;;;;;5036030;28;20037;-91
2023/12/31 07:23:36;;;;;;;42.72;27.70;;;10.20;98.20;;;;;;5046114;28;20029;-90
2023/12/31 07:26:03;;;;;;;36.03;22.35;;;10.20;98.50;;;;;;5040551;28;20109;-86
2023/12/31 07:28:29;;;;;;;40.28;24.25;;;10.30;99.00;;;;;;5040765;28;20026;-93
2023/12/31 07:30:55;;;;;;;37.47;26.17;;;10.40;99.50;;;;;;5034976;28;20045;-92
2023/12/31 07:33:21;;;;;;;38.83;25.77;;;10.50;98.90;;;;;;5036294;28;20033;-91
2023/12/31 07:35:47;;;;;;;35.35;24.58;;;10.60;98.50;;;;;;5035739;28;20095;-91
2023/12/31 07:38:13;;;;;;;38.45;26.40;;;10.60;98.20;;;;;;5035474;28;20117;-91
2023/12/31 07:40:38;;;;;;;39.60;26.13;;;10.60;98.20;;;;;;5035957;28;20055;-92
2023/12/31 07:43:04;;;;;;;37.88;24.80;;;10.60;98.20;;;;;;5035893;28;20017;-91
2023/12/31 07:45:31;;;;;;;35.25;25.13;;;10.60;98.20;;;;;;5035797;28;20026;-91
2023/12/31 07:47:57;;;;;;;34.40;22.60;;;10.60;98.10;;;;;;5035903;28;20060;-92
2023/12/31 07:50:22;;;;;;;34.10;23.77;;;10.60;98.00;;;;;;5035754;28;20048;-90
2023/12/31 07:52:48;;;;;;;30.38;21.45;;;10.70;97.90;;;;;;5034024;28;20017;-87
2023/12/31 07:55:14;;;;;;;30.42;19.48;;;10.70;97.60;;;;;;5034841;28;20053;-85
2023/12/31 07:57:40;;;;;;;34.58;22.65;;;10.70;97.50;;;;;;5034573;28;20018;-85
2023/12/31 08:00:07;;;;;;;29.08;19.40;;;10.60;97.50;;;;;;5034503;28;20104;-86
2023/12/31 08:02:33;;;;;;;30.40;19.48;;;10.60;97.40;;;;;;5038733;28;20120;-86
2023/12/31 08:04:58;;;;;;;32.95;21.08;;;10.60;97.20;;;;;;5037613;28;20350;-86
2023/12/31 08:07:24;;;;;;;30.60;21.23;;;10.60;97.20;;;;;;5027107;28;20065;-85
2023/12/31 08:09:50;;;;;;;33.47;21.90;;;10.60;97.20;;;;;;5033550;28;20029;-85
2023/12/31 08:12:16;;;;;;;32.45;22.05;;;10.70;97.50;;;;;;5035100;28;20480;-85
2023/12/31 08:14:41;;;;;;;36.15;23.55;;;10.70;97.40;;;;;;5034296;28;20037;-85
2023/12/31 08:17:07;;;;;;;34.63;21.48;;;10.80;97.60;;;;;;5033067;28;20034;-84
2023/12/31 08:19:33;;;;;;;31.30;21.88;;;10.80;97.20;;;;;;5033431;28;20021;-84
2023/12/31 08:21:59;;;;;;;36.78;21.48;;;10.80;97.00;;;;;;5033053;28;20049;-86
2023/12/31 08:24:25;;;;;;;30.30;21.50;;;10.80;97.00;;;;;;5033842;28;20025;-89
2023/12/31 08:26:52;;;;;;;30.08;19.75;;;10.80;97.00;;;;;;5032662;28;20029;-86
2023/12/31 08:29:17;;;;;;;33.08;21.90;;;10.90;97.50;;;;;;5034451;28;20045;-86
2023/12/31 08:31:49;;;;;;;30.98;20.70;;;11.00;97.20;;;;;;5032427;28;20455;-86
2023/12/31 08:34:15;;;;;;;27.23;18.95;;;11.00;97.10;;;;;;5033505;28;20492;-85
2023/12/31 08:36:40;;;;;;;27.85;19.15;;;11.10;97.00;;;;;;5033297;28;20029;-85
2023/12/31 08:39:06;;;;;;;27.40;17.90;;;11.10;96.80;;;;;;5033907;28;20171;-85
2023/12/31 08:41:32;;;;;;;30.00;18.58;;;11.10;96.60;;;;;;5032094;28;20034;-85
2023/12/31 08:43:58;;;;;;;24.17;17.58;;;11.10;96.70;;;;;;5035358;28;20021;-85
2023/12/31 08:46:24;;;;;;;26.33;17.50;;;11.10;96.60;;;;;;5032892;28;20025;-85
2023/12/31 08:48:49;;;;;;;23.67;16.15;;;11.20;96.50;;;;;;5032913;28;20061;-85
2023/12/31 08:51:15;;;;;;;23.30;15.13;;;11.30;96.30;;;;;;5033252;28;20037;-86
2023/12/31 08:53:42;;;;;;;23.13;16.10;;;11.30;96.00;;;;;;5033971;28;20033;-85
2023/12/31 08:56:08;;;;;;;21.85;14.77;;;11.30;95.80;;;;;;5033758;28;20037;-85
2023/12/31 08:58:33;;;;;;;24.13;15.02;;;11.30;95.60;;;;;;5033927;28;20026;-86
2023/12/31 09:00:59;;;;;;;22.08;14.55;;;11.40;95.60;;;;;;5032842;28;20381;-85
2023/12/31 09:03:25;;;;;;;22.45;16.02;;;11.40;95.50;;;;;;5033145;28;20067;-86
2023/12/31 09:05:50;;;;;;;22.40;15.57;;;11.40;95.30;;;;;;5033653;28;20029;-85
2023/12/31 09:08:16;;;;;;;21.45;16.02;;;11.40;95.10;;;;;;5033962;28;20025;-86
2023/12/31 09:10:42;;;;;;;22.13;14.73;;;11.40;95.20;;;;;;5032590;28;20029;-86
2023/12/31 09:13:08;;;;;;;26.60;17.00;;;11.40;95.20;;;;;;5033748;28;20029;-87
2023/12/31 09:15:35;;;;;;;23.65;15.43;;;11.40;95.40;;;;;;5032251;28;20120;-86
2023/12/31 09:18:00;;;;;;;23.08;15.23;;;11.50;95.40;;;;;;5033518;28;20208;-87
2023/12/31 09:20:26;;;;;;;21.58;14.70;;;11.60;95.50;;;;;;5033432;28;20553;-87
2023/12/31 09:22:53;;;;;;;22.20;13.45;;;11.70;95.40;;;;;;5033787;28;20362;-87
2023/12/31 09:25:21;;;;;;;25.33;14.60;;;11.80;95.10;;;;;;5032975;28;20092;-87
2023/12/31 09:27:48;;;;;;;19.58;13.77;;;11.90;94.70;;;;;;5033617;28;20362;-87
2023/12/31 09:30:14;;;;;;;19.45;12.40;;;12.00;94.50;;;;;;5033771;28;20438;-85
2023/12/31 09:32:41;;;;;;;19.40;12.85;;;12.00;94.30;;;;;;5033367;28;20022;-85
2023/12/31 09:35:07;;;;;;;15.88;11.48;;;12.10;94.00;;;;;;5031965;28;20025;-86
2023/12/31 09:37:33;;;;;;;18.15;12.50;;;12.10;93.60;;;;;;5033770;28;20033;-87
2023/12/31 09:39:59;;;;;;;21.75;15.35;;;12.10;93.80;;;;;;5033718;28;20037;-87
2023/12/31 09:42:51;;;;;;;24.63;16.60;;;12.10;93.70;;;;;;5033679;28;20036;-86
2023/12/31 09:45:24;;;;;;;21.95;15.10;;;12.10;93.70;;;;;;5032640;28;20041;-87
2023/12/31 09:47:50;;;;;;;26.83;17.42;;;12.00;93.60;;;;;;5033309;28;20033;-85
2023/12/31 09:50:22;;;;;;;23.05;15.30;;;11.90;93.50;;;;;;5033509;28;20037;-86
2023/12/31 09:52:48;;;;;;;21.35;14.68;;;11.90;93.80;;;;;;5033365;28;20470;-85
2023/12/31 09:55:18;;;;;;;19.35;13.88;;;11.80;94.00;;;;;;5032595;28;20060;-85
2023/12/31 09:57:48;;;;;;;32.42;19.90;;;11.70;94.00;;;;;;5031501;28;20417;-88
2023/12/31 10:00:14;;;;;;;17.90;13.65;;;11.60;94.10;;;;;;5024893;28;20037;-88
2023/12/31 10:02:41;;;;;;;25.35;17.10;;;11.60;94.20;;;;;;5033180;28;20516;-89
2023/12/31 10:05:07;;;;;;;17.30;12.95;;;11.60;94.10;;;;;;5031494;28;20034;-86
2023/12/31 10:07:34;;;;;;;20.13;13.43;;;11.50;94.00;;;;;;5030946;28;20044;-83
2023/12/31 10:10:00;;;;;;;16.75;12.77;;;11.50;94.20;;;;;;5032757;28;20120;-87
2023/12/31 10:12:27;;;;;;;25.13;15.85;;;11.60;94.40;;;;;;5032963;28;20087;-91
2023/12/31 10:14:54;;;;;;;25.42;14.02;;;11.70;94.90;;;;;;5033360;28;20022;-88
2023/12/31 10:17:20;;;;;;;27.42;17.85;;;11.80;95.70;;;;;;5036812;28;20474;-88
2023/12/31 10:19:46;;;;;;;23.48;15.50;;;12.00;95.20;;;;;;5032954;28;20036;-87
2023/12/31 10:22:13;;;;;;;26.00;17.00;;;12.00;94.90;;;;;;5033611;28;20374;-88
2023/12/31 10:24:41;;;;;;;28.80;16.75;;;12.10;95.10;;;;;;5029453;28;20600;-88
2023/12/31 10:27:08;;;;;;;23.35;15.98;;;12.20;94.70;;;;;;5029235;28;20049;-88
2023/12/31 10:29:35;;;;;;;29.88;19.88;;;12.20;94.50;;;;;;5045705;28;20026;-89
2023/12/31 10:32:07;;;;;;;19.60;13.90;;;12.10;94.40;;;;;;5034759;28;20017;-87
2023/12/31 10:34:33;;;;;;;22.58;15.50;;;12.10;94.20;;;;;;5034848;28;20432;-87
2023/12/31 10:37:05;;;;;;;21.67;15.15;;;12.20;94.50;;;;;;5036639;28;20470;-88
2023/12/31 10:39:36;;;;;;;22.83;15.82;;;12.30;94.40;;;;;;5035799;28;20499;-87
2023/12/31 10:42:06;;;;;;;22.15;15.88;;;12.30;94.40;;;;;;5034823;28;20136;-88
2023/12/31 10:44:34;;;;;;;19.30;14.10;;;12.40;94.50;;;;;;5035128;28;20033;-87
2023/12/31 10:47:04;;;;;;;23.00;15.70;;;12.40;94.10;;;;;;5035912;28;20028;-86
2023/12/31 10:49:32;;;;;;;24.98;16.60;;;12.40;94.10;;;;;;5029666;28;20033;-88
2023/12/31 10:52:01;;;;;;;24.20;15.27;;;12.40;93.90;;;;;;5038077;28;20057;-88
2023/12/31 10:54:42;;;;;;;24.03;16.13;;;12.40;94.00;;;;;;5034599;28;20386;-89
2023/12/31 10:57:10;;;;;;;22.45;15.45;;;12.30;94.10;;;;;;5017073;28;20100;-91
2023/12/31 10:59:36;;;;;;;21.67;15.38;;;12.30;94.20;;;;;;5034939;28;20021;-89
2023/12/31 11:02:06;;;;;;;22.30;14.23;;;12.40;94.30;;;;;;5034897;28;20048;-88
2023/12/31 11:04:32;;;;;;;19.98;13.23;;;12.40;94.10;;;;;;5036338;28;20478;-89
2023/12/31 11:07:03;;;;;;;19.27;13.70;;;12.40;94.10;;;;;;5036065;28;20046;-90
2023/12/31 11:09:29;;;;;;;19.98;13.25;;;12.40;94.10;;;;;;5036277;28;20056;-89
2023/12/31 11:11:55;;;;;;;22.35;15.52;;;12.40;94.10;;;;;;5036480;28;20480;-90
2023/12/31 11:14:28;;;;;;;22.35;14.30;;;12.40;94.10;;;;;;5036391;28;20113;-90
2023/12/31 11:17:02;;;;;;;24.42;15.38;;;12.50;94.20;;;;;;5035981;28;20394;-90
2023/12/31 11:20:10;;;;;;;21.58;14.50;;;12.50;94.00;;;;;;5021943;28;20035;-90
2023/12/31 11:22:53;;;;;;;19.73;13.60;;;12.50;94.00;;;;;;5028648;28;20136;-89
2023/12/31 11:25:21;;;;;;;18.85;13.57;;;12.40;93.80;;;;;;5032947;28;20025;-89
2023/12/31 11:27:48;;;;;;;19.35;13.73;;;12.30;94.00;;;;;;5035151;28;20083;-90
2023/12/31 11:30:14;;;;;;;19.95;14.20;;;12.30;94.10;;;;;;5035767;28;20040;-90
2023/12/31 11:32:40;;;;;;;21.85;13.85;;;12.40;94.10;;;;;;5035676;28;20018;-91
2023/12/31 11:35:07;;;;;;;24.50;14.98;;;12.30;93.90;;;;;;5034303;28;20018;-90
2023/12/31 11:37:37;;;;;;;23.25;15.55;;;12.30;94.00;;;;;;5034625;28;20026;-90
2023/12/31 11:40:05;;;;;;;22.60;15.70;;;12.30;94.10;;;;;;5035476;28;20087;-90
2023/12/31 11:42:31;;;;;;;24.75;16.55;;;12.30;94.20;;;;;;5034618;28;20482;-91
2023/12/31 11:44:57;;;;;;;25.02;16.15;;;12.40;94.20;;;;;;5034353;28;20037;-91
2023/12/31 11:47:29;;;;;;;27.42;16.33;;;12.30;94.20;;;;;;5035369;28;20032;-92
2023/12/31 11:49:58;;;;;;;31.33;19.90;;;12.30;94.30;;;;;;5033576;28;20072;-87
2023/12/31 11:52:44;;;;;;;23.83;16.33;;;12.40;94.40;;;;;;5035096;28;20026;-87
2023/12/31 11:55:11;;;;;;;37.03;23.48;;;12.40;94.50;;;;;;5029568;28;20132;-88
2023/12/31 11:57:38;;;;;;;22.70;16.42;;;12.30;94.70;;;;;;5042393;28;20033;-88
2023/12/31 12:00:08;;;;;;;25.80;17.15;;;12.30;94.80;;;;;;5052241;28;20037;-90
2023/12/31 12:02:34;;;;;;;24.83;16.83;;;12.30;94.90;;;;;;5055105;28;20033;-90
2023/12/31 12:07:38;;;;;;;26.70;18.17;;;12.40;94.90;;;;;;5034087;28;20485;-89
2023/12/31 12:10:04;;;;;;;24.90;17.80;;;12.50;95.00;;;;;;5035392;28;20087;-89
2023/12/31 12:12:30;;;;;;;24.48;17.75;;;12.60;95.10;;;;;;5037845;28;20541;-91
2023/12/31 12:14:56;;;;;;;24.95;17.52;;;12.60;95.00;;;;;;5054736;28;20025;-88
2023/12/31 12:17:28;;;;;;;26.23;17.38;;;12.60;95.00;;;;;;5033513;28;20450;-90
2023/12/31 12:19:53;;;;;;;29.38;20.27;;;12.60;95.00;;;;;;5028685;28;20066;-90
2023/12/31 12:22:20;;;;;;;25.10;17.35;;;12.70;95.00;;;;;;5014932;28;20052;-88
2023/12/31 12:24:46;;;;;;;30.27;20.38;;;12.70;94.90;;;;;;5041034;28;20025;-88
2023/12/31 12:27:15;;;;;;;27.73;18.80;;;12.60;94.90;;;;;;5040037;28;20032;-87